Hobart Regional Airport
KHBR : rendu visible

Aérodrome :











RETROUVEZ-NOUS SUR...

 
LOGIN :

S'inscrire | Disclaimer

   EN    FR    IT 

 









Légende :    VFR   VFR Marginal   IFR   IFR Intensif   IFR Très Intensif
Visi : 
Plafond : 
>= 8 km
>= 3000ft
5 à 8 km
1000 à 3000 ft
1500m à 5 km
500 à 1000 ft
800 à 1500m
200 à 500 ft
< 800m
< 200 ft
Symboles :   Orages  Brouillard  Fortes neiges  Fortes précipitations  Vent > 20 kt






- Altitude de l'aérodrome : 1563 ft


KHBR - Hobart Regional

DERNIER METAR :
  • 062353Z AUTO 18016KT 10SM CLR 21/16 A2987 RMK AO2 PK WND 19026/2324 SLP103 T02060161 10222 20200 56009

METARs EXPIRÉS :
  • 062253Z AUTO 19016G24KT 10SM CLR 21/16 A2987 RMK AO2 SLP104 T02110161
  • 062153Z AUTO 19015KT 10SM CLR 20/16 A2988 RMK AO2 PK WND 19026/2125 SLP108 T02000161

Prévision TAF périmée.



MET'MAP, la Météo Aéronautique d'un coup d'oeil ! - Copyright ORBIFLY Décembre 2007 - Disclaimer

ORBIFLY MET'MAP TEAM :

Programmation & Développement : Alexandra Zaïnal
Sur une idée originale de : Baudouin d'Aumeries
Assistance à la programmation : Marc-Olivier Méhu
Soutien technique & logistique : Manuel Goepfert

Contact : metmap@orbifly.com




SOURCES & CREDITS :

   NOAA       Earth
Advisory